Sunday, August 19, 2018, 12:25 AM GMT
Back to Local

CYYZ, Toronto Pearson Int'L. Ont.

Location: , , Canada Lat: 43.667
Local Time: 12:25 AM GMT ( 0:25 GMT) Lon: -79.633
Time Zone: GMT Elev: 567 ft

Show me the last for .
Show Decoded

2018-08-19 00:00 METAR CYYZ 190000Z 17003KT 15SM FEW037 FEW100 OVC250 22/17 A2996 RMK CU1AC1CS8
                 CU TR AC TR SLP145 DENSITY ALT 1500FT =
2018-08-18 23:00 METAR CYYZ 182300Z 16006KT 15SM SCT037 OVC230 23/17 A2995 RMK CU3CS5 SLP144
                 DENSITY ALT 1600FT =
2018-08-18 22:00 METAR CYYZ 182200Z 14005KT 120V200 15SM SCT040 OVC260 23/17 A2996 RMK CU3CS5
                 SLP145 DENSITY ALT 1700FT =
2018-08-18 21:00 METAR CYYZ 182100Z 15005KT 15SM BKN035 OVC260 23/17 A2996 RMK CU6CS2 SLP145
                 DENSITY ALT 1600FT =
2018-08-18 20:00 METAR CYYZ 182000Z 15006KT 15SM BKN040 OVC260 23/17 A2997 RMK CU6CS2 SLP147
                 DENSITY ALT 1600FT =
2018-08-18 19:00 METAR CYYZ 181900Z VRB04KT 15SM BKN045 OVC260 24/16 A2997 RMK CU7CS1 SLP147
                 DENSITY ALT 1700FT =
2018-08-18 18:00 METAR CYYZ 181800Z 07008KT 15SM FEW048 OVC260 25/15 A2996 RMK CU2CS6 SLP145
                 DENSITY ALT 1800FT =
2018-08-18 17:00 METAR CYYZ 181700Z VRB06KT 15SM FEW038 BKN260 24/17 A2997 RMK CU1CS6 SLP147
                 DENSITY ALT 1800FT =
2018-08-18 16:00 METAR CYYZ 181600Z 01007KT 360V070 15SM FEW032 BKN260 23/16 A2997 RMK CU1CS5 CU
                 TR SLP149 DENSITY ALT 1700FT =
2018-08-18 15:00 METAR CYYZ 181500Z 04005KT 010V090 15SM FEW028 23/16 A2997 RMK CF1 CF TR SLP148
                 DENSITY ALT 1600FT =
2018-08-18 14:00 METAR CYYZ 181400Z 06008KT 030V090 15SM SKC 22/15 A2998 RMK SLP151 DENSITY ALT
                 1500FT =
2018-08-18 13:00 METAR CYYZ 181300Z 04008KT 15SM FEW190 21/17 A2996 RMK AC1 AC TR SLP147 DENSITY
                 ALT 1400FT =
2018-08-18 12:00 METAR CYYZ 181200Z 03006KT 15SM FEW016 FEW190 FEW270 20/18 A2996 RMK SC1AC1CI1
                 SC TR AC TR CI TR SLP146 DENSITY ALT 1300FT =
2018-08-18 11:00 METAR CYYZ 181100Z 04006KT 15SM FEW012 FEW190 SCT270 19/17 A2995 RMK SC1AC2CI2
                 SC TR SLP142 DENSITY ALT 1200FT =
2018-08-18 10:00 METAR CYYZ 181000Z 04007KT 15SM FEW080 SCT180 BKN240 20/18 A2994 RMK AC2AC2CC2
                 SLP137 DENSITY ALT 1300FT =
2018-08-18 09:00 METAR CYYZ 180900Z 04005KT 15SM SCT090 OVC180 21/19 A2992 RMK AC4AC4 SLP132
                 DENSITY ALT 1400FT =
2018-08-18 08:00 METAR CYYZ 180800Z 04005KT 15SM VCSH FEW050 BKN100 OVC130 21/19 A2992 RMK
                 SC2AC4AC2 SLP130 DENSITY ALT 1400FT =
2018-08-18 07:00 METAR CYYZ 180700Z 06006KT 15SM -RA SCT090 OVC120 21/19 A2991 RMK AC3AC5 SLP128
                 DENSITY ALT 1500FT =
2018-08-18 06:00 METAR CYYZ 180600Z 02008KT 15SM -RA FEW040 BKN090 OVC150 21/20 A2991 RMK
                 SC2AC4AC2 SLP127 DENSITY ALT 1500FT =
2018-08-18 05:00 METAR CYYZ 180500Z 03005KT 15SM -RA FEW020 BKN055 OVC085 22/20 A2990 RMK
                 SC1SC5AC2 SLP125 DENSITY ALT 1500FT =
2018-08-18 04:22 METAR CYYZ 180422Z 05005KT 15SM -RA SCT035 BKN065 OVC130 22/20 A2991 RMK
                 SC3SC3AC2 SLP127 DENSITY ALT 1600FT =
2018-08-18 04:00 METAR CYYZ 180400Z 05006KT 15SM FEW030 SCT060 OVC130 22/20 A2991 RMK SC2SC2AC4
                 SLP126 DENSITY ALT 1600FT =
2018-08-18 03:33 METAR CYYZ 180333Z 04006KT 15SM SCT030 BKN060 OVC140 22/20 A2990 RMK SC3SC3AC2
                 SLP125 DENSITY ALT 1600FT =
2018-08-18 03:00 METAR CYYZ 180300Z 36008KT 15SM -RA BKN022 OVC030 22/20 A2991 RMK SC6SC2 SLP128
                 DENSITY ALT 1600FT =
2018-08-18 02:45 METAR CYYZ 180245Z 01010KT 15SM -RA SCT023 OVC055 22/20 A2991 RMK SC4SC4 SLP129
                 DENSITY ALT 1500FT =
2018-08-18 02:00 METAR CYYZ 180200Z 01008KT 15SM SCT045 OVC060 22/20 A2991 RMK SC4SC4 SLP128
                 DENSITY ALT 1600FT =
2018-08-18 01:00 METAR CYYZ 180100Z 36006KT 15SM SCT035 BKN060 BKN170 22/20 A2990 RMK SC3SC2AC2
                 SLP125 DENSITY ALT 1500FT =
2018-08-18 00:30 METAR CYYZ 180030Z 33009KT 15SM BKN050 OVC075 22/20 A2989 RMK SC5AC3 SLP121
                 DENSITY ALT 1600FT =

Support USWX by starting your Amazon purchase here.